createdAt,value
2022-09-21T00:00:04.103Z,26.8
2022-09-21T00:01:05.261Z,26.9
2022-09-21T00:02:01.209Z,27
2022-09-21T00:03:01.303Z,26.9
2022-09-21T00:04:01.058Z,27.1
2022-09-21T00:05:00.638Z,27
2022-09-21T00:06:05.553Z,27.1
2022-09-21T00:07:01.612Z,27.4
2022-09-21T00:08:01.509Z,27.4
2022-09-21T00:09:01.233Z,27.2
2022-09-21T00:10:01.095Z,27.2
2022-09-21T00:11:08.446Z,27.1
2022-09-21T00:12:01.371Z,26.9
2022-09-21T00:13:02.040Z,27
2022-09-21T00:14:01.328Z,27
2022-09-21T00:15:01.138Z,26.8
2022-09-21T00:16:11.076Z,26.7
2022-09-21T00:17:01.531Z,26.6
2022-09-21T00:18:01.852Z,26.4
2022-09-21T00:19:01.149Z,26.2
2022-09-21T00:20:00.853Z,26.5
2022-09-21T00:21:13.360Z,26.5
2022-09-21T00:22:01.876Z,26.7
2022-09-21T00:23:02.434Z,26.4
2022-09-21T00:24:01.333Z,26.6
2022-09-21T00:25:02.318Z,26.5
2022-09-21T00:26:15.317Z,26.6
2022-09-21T00:27:01.948Z,26.7
2022-09-21T00:28:01.188Z,26.6
2022-09-21T00:29:01.205Z,26.8
2022-09-21T00:30:01.576Z,26.8
2022-09-21T00:31:01.274Z,26.7
2022-09-21T00:32:01.197Z,26.8
2022-09-21T00:33:01.147Z,26.6
2022-09-21T00:34:01.145Z,27
2022-09-21T00:35:01.160Z,27
2022-09-21T00:36:01.069Z,27
2022-09-21T00:37:01.064Z,27
2022-09-21T00:38:01.242Z,27.3
2022-09-21T00:39:01.507Z,27.3
2022-09-21T00:40:01.283Z,27.2
2022-09-21T00:41:01.083Z,27.3
2022-09-21T00:42:01.114Z,27.5
2022-09-21T00:43:01.131Z,27.9
2022-09-21T00:44:01.110Z,28.2
2022-09-21T00:45:01.115Z,28.2
2022-09-21T00:46:01.206Z,28.4
2022-09-21T00:47:01.245Z,28.6
2022-09-21T00:48:01.538Z,28.7
2022-09-21T00:49:01.062Z,28.9
2022-09-21T00:50:01.785Z,29.1
2022-09-21T00:51:00.761Z,29.4
2022-09-21T00:52:00.345Z,29.8
2022-09-21T00:53:00.048Z,30.2
2022-09-21T00:53:59.863Z,30.7
2022-09-21T00:55:01.753Z,30.9
2022-09-21T00:56:01.787Z,30.9
2022-09-21T00:57:02.111Z,31
2022-09-21T00:58:01.109Z,31.3
2022-09-21T00:59:01.108Z,31.7
2022-09-21T01:00:01.131Z,31.9
2022-09-21T01:01:01.141Z,31.9
2022-09-21T01:02:01.212Z,32
2022-09-21T01:03:01.130Z,32.4
2022-09-21T01:04:01.029Z,32.5
2022-09-21T01:05:01.141Z,32.5
2022-09-21T01:06:01.073Z,33
2022-09-21T01:07:01.869Z,33.4
2022-09-21T01:08:01.453Z,33.3
2022-09-21T01:09:01.085Z,33.5
2022-09-21T01:10:01.081Z,33.5
2022-09-21T01:11:01.472Z,33.6
2022-09-21T01:12:01.127Z,33.7
2022-09-21T01:13:01.150Z,33.7
2022-09-21T01:14:01.114Z,33.8
2022-09-21T01:15:01.120Z,34
2022-09-21T01:16:01.156Z,33.8
2022-09-21T01:17:04.709Z,33.6
2022-09-21T01:18:02.215Z,33.5
2022-09-21T01:19:01.440Z,33.3
2022-09-21T01:20:01.256Z,33.4
2022-09-21T01:21:02.090Z,33.5
2022-09-21T01:22:02.088Z,33.5
2022-09-21T01:23:01.746Z,33.7
2022-09-21T01:24:01.307Z,33.6
2022-09-21T01:25:01.306Z,33.5
2022-09-21T01:26:01.329Z,33.3
2022-09-21T01:27:02.215Z,33.4
2022-09-21T01:28:02.141Z,33.4
2022-09-21T01:29:01.130Z,33.4
2022-09-21T01:29:59.763Z,33.5
2022-09-21T01:31:01.414Z,33.6
2022-09-21T01:32:02.472Z,33.8
2022-09-21T01:33:02.357Z,33.7
2022-09-21T01:34:04.665Z,33.9
2022-09-21T01:35:02.343Z,33.9
2022-09-21T01:36:01.587Z,34
2022-09-21T01:37:01.860Z,33.7
2022-09-21T01:38:01.067Z,33.7
2022-09-21T01:39:01.069Z,33.8
2022-09-21T01:40:01.096Z,33.8
2022-09-21T01:41:01.461Z,34.1
2022-09-21T01:42:01.054Z,34.1
2022-09-21T01:43:01.092Z,34.8
2022-09-21T01:44:01.062Z,35.2
2022-09-21T01:45:01.377Z,35.6
2022-09-21T01:46:01.345Z,35.8
2022-09-21T01:47:01.108Z,36.3
2022-09-21T01:48:01.118Z,36.9
2022-09-21T01:49:01.424Z,37
2022-09-21T01:50:01.130Z,37.3
2022-09-21T01:51:01.155Z,37.5
2022-09-21T01:52:03.866Z,37.7
2022-09-21T01:53:01.402Z,37.8
2022-09-21T01:54:01.069Z,37.7
2022-09-21T01:55:01.067Z,37.9
2022-09-21T01:56:01.082Z,37.8
2022-09-21T01:57:06.897Z,38
2022-09-21T01:58:01.781Z,38.6
2022-09-21T01:59:01.367Z,39.2
2022-09-21T02:00:02.023Z,39.4
2022-09-21T02:01:02.120Z,39.5
2022-09-21T02:02:09.860Z,39.7
2022-09-21T02:03:01.119Z,40.3
2022-09-21T02:04:00.837Z,40.4
2022-09-21T02:05:00.667Z,40.5
2022-09-21T02:06:00.331Z,40.6
2022-09-21T02:07:11.742Z,40.8
2022-09-21T02:08:01.315Z,41.1
2022-09-21T02:09:02.974Z,41.4
2022-09-21T02:10:02.420Z,41.5
2022-09-21T02:11:00.775Z,41.9
2022-09-21T02:12:18.175Z,42.2
2022-09-21T02:13:01.547Z,42.5
2022-09-21T02:14:01.673Z,43.1
2022-09-21T02:15:01.264Z,43.1
2022-09-21T02:16:01.371Z,43.2
2022-09-21T02:17:16.804Z,44
2022-09-21T02:18:01.144Z,44.3
2022-09-21T02:19:01.118Z,44.7
2022-09-21T02:20:01.127Z,44.5
2022-09-21T02:21:05.075Z,44.7
2022-09-21T02:22:01.137Z,44.9
2022-09-21T02:23:01.154Z,45
2022-09-21T02:24:01.162Z,45.2
2022-09-21T02:25:01.447Z,45.4
2022-09-21T02:26:01.070Z,45.6
2022-09-21T02:27:01.087Z,46
2022-09-21T02:28:01.786Z,46.2
2022-09-21T02:29:00.797Z,46.6
2022-09-21T02:30:00.505Z,46.9
2022-09-21T02:31:00.253Z,47.2
2022-09-21T02:31:59.974Z,47.5
2022-09-21T02:32:59.666Z,48.4
2022-09-21T02:34:01.908Z,49.4
2022-09-21T02:35:01.793Z,49.6
2022-09-21T02:36:01.133Z,49.7
2022-09-21T02:37:01.131Z,49.7
2022-09-21T02:38:01.130Z,49.8
2022-09-21T02:39:00.685Z,50.2
2022-09-21T02:40:00.490Z,50.7
2022-09-21T02:41:00.392Z,51
2022-09-21T02:42:00.080Z,52
2022-09-21T02:42:59.797Z,52.1
2022-09-21T02:44:01.786Z,52
2022-09-21T02:45:01.795Z,52
2022-09-21T02:46:01.112Z,52.3
2022-09-21T02:47:01.101Z,52.5
2022-09-21T02:48:01.772Z,52.5
2022-09-21T02:49:01.174Z,52.7
2022-09-21T02:50:01.826Z,53
2022-09-21T02:51:02.149Z,53.2
2022-09-21T02:52:01.934Z,53.4
2022-09-21T02:53:01.460Z,53.7
2022-09-21T02:54:01.137Z,54.4
2022-09-21T02:55:01.164Z,54.6
2022-09-21T02:56:01.062Z,55.1
2022-09-21T02:57:01.058Z,54.8
2022-09-21T02:58:01.108Z,54.8
2022-09-21T02:59:01.075Z,54.8
2022-09-21T03:00:01.107Z,54.9
2022-09-21T03:01:01.112Z,54.9
2022-09-21T03:02:01.132Z,54.9
2022-09-21T03:03:01.095Z,55.3
2022-09-21T03:04:01.039Z,55.7
2022-09-21T03:05:01.035Z,55.7
2022-09-21T03:06:01.069Z,55.7
2022-09-21T03:07:01.059Z,55.8
2022-09-21T03:08:03.775Z,55.8
2022-09-21T03:09:01.036Z,56.1
2022-09-21T03:10:01.173Z,56.1
2022-09-21T03:11:01.163Z,56.1
2022-09-21T03:12:01.066Z,56.6
2022-09-21T03:13:01.073Z,57.1
2022-09-21T03:14:01.469Z,57.3
2022-09-21T03:15:01.188Z,57.4
2022-09-21T03:16:01.946Z,57.5
2022-09-21T03:17:01.159Z,57.3
2022-09-21T03:18:01.119Z,57.3
2022-09-21T03:19:01.116Z,57.2
2022-09-21T03:20:01.844Z,57
2022-09-21T03:21:01.119Z,57.6
2022-09-21T03:22:01.813Z,57.5
2022-09-21T03:23:01.421Z,57.3
2022-09-21T03:24:01.017Z,57.2
2022-09-21T03:25:01.147Z,57.5
2022-09-21T03:26:01.174Z,57.7
2022-09-21T03:27:01.817Z,57.6
2022-09-21T03:28:01.864Z,57.6
2022-09-21T03:29:02.478Z,57.8
2022-09-21T03:30:02.319Z,58.1
2022-09-21T03:31:01.146Z,58.1
2022-09-21T03:32:01.364Z,57.9
2022-09-21T03:33:01.899Z,58
2022-09-21T03:34:01.088Z,58
2022-09-21T03:35:01.095Z,57.8
2022-09-21T03:36:01.122Z,57.9
2022-09-21T03:37:01.110Z,58.2
2022-09-21T03:38:04.744Z,58.4
2022-09-21T03:39:01.141Z,58.7
2022-09-21T03:40:01.505Z,58.9
2022-09-21T03:41:01.449Z,58.9
2022-09-21T03:42:01.589Z,59.6
2022-09-21T03:43:07.726Z,60.2
2022-09-21T03:44:01.739Z,60.6
2022-09-21T03:45:01.743Z,60.6
2022-09-21T03:46:01.145Z,60.1
2022-09-21T03:47:01.093Z,60.1
2022-09-21T03:48:10.683Z,59.9
2022-09-21T03:49:01.479Z,59.9
2022-09-21T03:50:01.419Z,60.1
2022-09-21T03:51:04.101Z,59.6
2022-09-21T03:52:01.127Z,59.2
2022-09-21T03:53:10.796Z,59.3
2022-09-21T03:54:01.493Z,59.4
2022-09-21T03:55:01.126Z,59.6
2022-09-21T03:56:01.856Z,59.2
2022-09-21T03:57:01.538Z,59.4
2022-09-21T03:58:14.357Z,59.6
2022-09-21T03:59:01.172Z,59.8
2022-09-21T04:00:01.081Z,59.7
2022-09-21T04:01:01.881Z,59.7
2022-09-21T04:02:03.782Z,59.7
2022-09-21T04:03:17.412Z,59.6
2022-09-21T04:04:01.885Z,59.8
2022-09-21T04:05:01.106Z,60.3
2022-09-21T04:06:01.097Z,60.6
2022-09-21T04:07:04.196Z,60.8
2022-09-21T04:08:01.710Z,62.2
2022-09-21T04:09:01.117Z,64.5
2022-09-21T04:10:01.180Z,66.4
2022-09-21T04:11:01.188Z,67.7
2022-09-21T04:12:01.524Z,68.3
2022-09-21T04:13:01.156Z,69.6
2022-09-21T04:14:01.150Z,70.5
2022-09-21T04:15:01.174Z,72.2
2022-09-21T04:16:01.870Z,72.9
2022-09-21T04:17:01.369Z,73.7
2022-09-21T04:18:02.085Z,73.7
2022-09-21T04:19:01.191Z,73.5
2022-09-21T04:20:00.883Z,74.5
2022-09-21T04:21:01.419Z,74.1
2022-09-21T04:22:01.351Z,73.8
2022-09-21T04:23:02.110Z,73.3
2022-09-21T04:24:02.147Z,73.5
2022-09-21T04:25:01.390Z,73.6
2022-09-21T04:26:01.136Z,73.6
2022-09-21T04:27:03.085Z,73.6
2022-09-21T04:28:02.049Z,73
2022-09-21T04:29:01.150Z,72.5
2022-09-21T04:30:01.572Z,72.4
2022-09-21T04:31:01.771Z,72.5
2022-09-21T04:32:01.738Z,72.5
2022-09-21T04:33:01.177Z,73.1
2022-09-21T04:34:01.122Z,73.2
2022-09-21T04:35:01.205Z,73.1
2022-09-21T04:36:01.191Z,72.8
2022-09-21T04:37:01.196Z,72.6
2022-09-21T04:38:01.199Z,72.1
2022-09-21T04:39:01.858Z,72.1
2022-09-21T04:40:01.005Z,71.9
2022-09-21T04:41:03.860Z,71.5
2022-09-21T04:42:01.218Z,71
2022-09-21T04:43:01.141Z,70.7
2022-09-21T04:44:01.141Z,70.6
2022-09-21T04:45:01.858Z,69.2
2022-09-21T04:46:02.533Z,68.2
2022-09-21T04:47:01.847Z,68.5
2022-09-21T04:48:01.477Z,68.9
2022-09-21T04:49:01.098Z,69.1
2022-09-21T04:50:01.094Z,69.3
2022-09-21T04:51:01.105Z,69.1
2022-09-21T04:52:01.100Z,69
2022-09-21T04:53:01.406Z,69.3
2022-09-21T04:54:01.411Z,69.7
2022-09-21T04:55:02.727Z,70.2
2022-09-21T04:56:01.421Z,70.6
2022-09-21T04:57:01.401Z,70.3
2022-09-21T04:58:01.136Z,70.4
2022-09-21T04:59:02.147Z,70.7
2022-09-21T05:00:00.837Z,70.7
2022-09-21T05:01:00.631Z,70.6
2022-09-21T05:02:00.338Z,71
2022-09-21T05:03:00.031Z,70.6
2022-09-21T05:03:59.828Z,70.4
2022-09-21T05:05:01.700Z,70.8
2022-09-21T05:06:01.423Z,70.8
2022-09-21T05:07:02.084Z,72.1
2022-09-21T05:08:01.488Z,72
2022-09-21T05:09:00.874Z,72
2022-09-21T05:10:01.091Z,72.3
2022-09-21T05:11:01.057Z,72.7
2022-09-21T05:12:01.115Z,73
2022-09-21T05:13:01.123Z,73.1
2022-09-21T05:14:01.005Z,73.3
2022-09-21T05:15:01.453Z,73.3
2022-09-21T05:16:01.210Z,72.9
2022-09-21T05:17:01.170Z,72.8
2022-09-21T05:18:01.141Z,72.4
2022-09-21T05:19:01.169Z,72.3
2022-09-21T05:20:00.880Z,72.4
2022-09-21T05:21:01.307Z,72.1
2022-09-21T05:22:01.988Z,71.6
2022-09-21T05:23:02.614Z,71.6
2022-09-21T05:24:00.831Z,71.4
2022-09-21T05:25:00.376Z,71.7
2022-09-21T05:25:59.955Z,70.7
2022-09-21T05:26:59.665Z,68.9
2022-09-21T05:28:01.783Z,67.4
2022-09-21T05:29:04.410Z,67.2
2022-09-21T05:30:01.262Z,66.7
2022-09-21T05:31:17.071Z,66.8
2022-09-21T05:32:01.154Z,66.5
2022-09-21T05:33:01.757Z,67.1
2022-09-21T05:37:01.059Z,66.2
2022-09-21T05:38:00.548Z,63.6
2022-09-21T05:39:09.074Z,62.7
2022-09-21T05:40:02.260Z,61.5
2022-09-21T05:41:01.088Z,61.5
2022-09-21T05:42:01.086Z,61.4
2022-09-21T05:43:01.097Z,61.6
2022-09-21T05:44:10.469Z,61.8
2022-09-21T05:45:01.102Z,61.5
2022-09-21T05:46:01.148Z,62.1
2022-09-21T05:47:01.244Z,62.1
2022-09-21T05:48:01.129Z,62.4
2022-09-21T05:49:12.899Z,62.3
2022-09-21T05:50:02.296Z,61.8
2022-09-21T05:51:01.330Z,62
2022-09-21T05:52:01.075Z,62.7
2022-09-21T05:53:01.064Z,62.6
2022-09-21T05:54:16.300Z,62.9
2022-09-21T05:55:01.462Z,63.3
2022-09-21T05:56:02.105Z,62.2
2022-09-21T05:57:02.112Z,61.2
2022-09-21T05:58:01.863Z,60.6
2022-09-21T05:59:00.790Z,60.8
2022-09-21T06:00:00.362Z,59.8
2022-09-21T06:01:00.084Z,59.6
2022-09-21T06:01:59.767Z,59.5
2022-09-21T06:03:01.415Z,59.4
2022-09-21T06:04:01.517Z,58.7
2022-09-21T06:05:02.203Z,58.4
2022-09-21T06:06:01.822Z,58.6
2022-09-21T06:07:01.072Z,58.7
2022-09-21T06:08:01.055Z,58.6
2022-09-21T06:09:01.056Z,59
2022-09-21T06:10:00.849Z,58.5
2022-09-21T06:11:00.481Z,58.5
2022-09-21T06:12:00.325Z,58
2022-09-21T06:12:59.963Z,57.3
2022-09-21T06:13:59.674Z,57.4
2022-09-21T06:15:01.786Z,57
2022-09-21T06:16:01.102Z,56.9
2022-09-21T06:17:01.155Z,57
2022-09-21T06:18:01.824Z,56.9
2022-09-21T06:19:01.143Z,57.1
2022-09-21T06:20:01.311Z,56.7
2022-09-21T06:21:01.203Z,56
2022-09-21T06:22:01.238Z,56.2
2022-09-21T06:23:01.878Z,56.1
2022-09-21T06:24:01.227Z,56.8
2022-09-21T06:25:00.550Z,56.6
2022-09-21T06:26:00.282Z,57.2
2022-09-21T06:26:59.877Z,57.6
2022-09-21T06:27:59.538Z,57.2
2022-09-21T06:29:01.080Z,57
2022-09-21T06:30:01.120Z,57.4
2022-09-21T06:31:01.922Z,57.7
2022-09-21T06:32:01.110Z,58.1
2022-09-21T06:33:01.123Z,57.8
2022-09-21T06:34:01.114Z,57.9
2022-09-21T06:35:01.278Z,57.7
2022-09-21T06:36:01.135Z,57.9
2022-09-21T06:37:01.044Z,58.1
2022-09-21T06:38:01.060Z,58.1
2022-09-21T06:39:01.072Z,58
2022-09-21T06:40:01.563Z,58.4
2022-09-21T06:41:01.071Z,58.9
2022-09-21T06:42:01.098Z,59.3
2022-09-21T06:43:01.282Z,59.3
2022-09-21T06:44:01.083Z,59.4
2022-09-21T06:45:01.474Z,59.6
2022-09-21T06:46:01.261Z,59.8
2022-09-21T06:47:01.116Z,59.9
2022-09-21T06:48:01.135Z,60
2022-09-21T06:49:01.134Z,60.9
2022-09-21T06:50:01.133Z,61.3
2022-09-21T06:51:01.160Z,61.8
2022-09-21T06:52:01.157Z,62
2022-09-21T06:53:01.297Z,61.7
2022-09-21T06:54:01.304Z,61.7
2022-09-21T06:55:02.247Z,61.4
2022-09-21T06:56:01.965Z,61.5
2022-09-21T06:57:01.071Z,61.5
2022-09-21T06:58:02.713Z,61.5
2022-09-21T06:59:00.842Z,61.6
2022-09-21T07:00:01.091Z,62.2
2022-09-21T07:01:01.341Z,62
2022-09-21T07:02:02.684Z,62
2022-09-21T07:03:02.120Z,61.8
2022-09-21T07:04:02.157Z,61.7
2022-09-21T07:05:01.198Z,61.6
2022-09-21T07:06:01.125Z,61.1
2022-09-21T07:07:03.633Z,60.9
2022-09-21T07:08:01.334Z,61.6
2022-09-21T07:10:13.275Z,60.8
2022-09-21T07:11:01.159Z,60.7
2022-09-21T07:12:01.055Z,61.4
2022-09-21T07:13:01.078Z,59.4
2022-09-21T07:14:01.221Z,59.2
2022-09-21T07:15:01.090Z,58.6
2022-09-21T07:16:01.060Z,58.5
2022-09-21T07:17:01.078Z,58.9
2022-09-21T07:18:08.200Z,58.3
2022-09-21T07:19:10.791Z,57.4
2022-09-21T07:20:01.118Z,56.9
2022-09-21T07:21:01.146Z,56.9
2022-09-21T07:22:01.148Z,57.2
2022-09-21T07:23:01.142Z,57.3
2022-09-21T07:24:01.156Z,57.2
2022-09-21T07:25:04.313Z,57
2022-09-21T07:26:01.718Z,57.1
2022-09-21T07:27:01.415Z,57.1
2022-09-21T07:28:01.015Z,57.1
2022-09-21T07:29:00.955Z,57.1
2022-09-21T07:30:07.125Z,57.8
2022-09-21T07:31:01.079Z,58.3
2022-09-21T07:32:01.069Z,58
2022-09-21T07:33:01.062Z,57.8
2022-09-21T07:34:01.062Z,58.3
2022-09-21T07:35:09.177Z,59.1
2022-09-21T07:36:01.230Z,57.5
2022-09-21T07:37:01.119Z,57.5
2022-09-21T07:38:01.373Z,57.9
2022-09-21T07:39:00.868Z,57.9
2022-09-21T07:40:11.958Z,57.9
2022-09-21T07:41:01.038Z,58.4
2022-09-21T07:42:01.057Z,58.4
2022-09-21T07:43:01.070Z,58
2022-09-21T07:44:01.060Z,55.4
2022-09-21T07:45:14.725Z,56.4
2022-09-21T07:46:01.944Z,56
2022-09-21T07:47:01.758Z,54.6
2022-09-21T07:48:01.088Z,54.3
2022-09-21T07:49:01.098Z,55
2022-09-21T07:50:16.133Z,55.1
2022-09-21T07:51:01.425Z,55.6
2022-09-21T07:52:05.068Z,55.5
2022-09-21T07:53:03.009Z,56
2022-09-21T07:54:01.183Z,55.4
2022-09-21T07:55:01.032Z,55.4
2022-09-21T07:56:01.060Z,56.1
2022-09-21T07:57:01.129Z,55.4
2022-09-21T07:58:01.173Z,54.6
2022-09-21T07:59:01.083Z,54.1
2022-09-21T08:00:01.176Z,51.2
2022-09-21T08:01:01.945Z,50.1
2022-09-21T08:02:01.196Z,50.1
2022-09-21T08:03:01.083Z,50.8
2022-09-21T08:04:01.084Z,51
2022-09-21T08:05:01.099Z,51.9
2022-09-21T08:06:01.107Z,52.3
2022-09-21T08:07:01.204Z,52.5
2022-09-21T08:08:01.215Z,52.1
2022-09-21T08:09:01.148Z,51.9
2022-09-21T08:10:01.132Z,51
2022-09-21T08:11:01.129Z,51.6
2022-09-21T08:12:01.158Z,51.1
2022-09-21T08:13:01.049Z,50.4
2022-09-21T08:14:01.097Z,48.5
2022-09-21T08:15:01.256Z,47.7
2022-09-21T08:16:01.554Z,47.8
2022-09-21T08:17:02.089Z,48
2022-09-21T08:18:01.205Z,48.5
2022-09-21T08:19:01.518Z,47.6
2022-09-21T08:20:01.205Z,48
2022-09-21T08:21:01.103Z,48.7
2022-09-21T08:22:01.114Z,48
2022-09-21T08:23:01.288Z,47.9
2022-09-21T08:24:01.137Z,47.1
2022-09-21T08:25:01.203Z,46
2022-09-21T08:26:01.145Z,45.7
2022-09-21T08:27:00.419Z,45.7
2022-09-21T08:27:59.957Z,45.6
2022-09-21T08:28:59.601Z,44.5
2022-09-21T08:30:01.245Z,43.7
2022-09-21T08:31:02.670Z,43.9
2022-09-21T08:32:02.817Z,43.6
2022-09-21T08:33:01.120Z,43.6
2022-09-21T08:34:01.131Z,43.6
2022-09-21T08:35:01.054Z,43.5
2022-09-21T08:36:01.028Z,43
2022-09-21T08:37:01.204Z,43.3
2022-09-21T08:38:01.488Z,43.6
2022-09-21T08:39:01.336Z,43.8
2022-09-21T08:40:01.803Z,43.7
2022-09-21T08:41:02.989Z,43.1
2022-09-21T08:42:01.039Z,43
2022-09-21T08:43:01.033Z,43.1
2022-09-21T08:44:01.055Z,42.7
2022-09-21T08:45:01.056Z,42.4
2022-09-21T08:46:01.431Z,42
2022-09-21T08:47:01.604Z,37.6
2022-09-21T08:48:01.568Z,34.5
2022-09-21T08:49:01.247Z,33.7
2022-09-21T08:50:02.416Z,32.8
2022-09-21T08:51:01.087Z,33.4
2022-09-21T08:52:01.102Z,33.6
2022-09-21T08:53:01.104Z,33.8
2022-09-21T08:54:01.551Z,33.3
2022-09-21T08:55:01.059Z,32.9
2022-09-21T08:56:01.123Z,32.9
2022-09-21T08:57:05.450Z,32.4
2022-09-21T08:58:01.145Z,33
2022-09-21T08:59:01.152Z,33
2022-09-21T09:00:01.765Z,32.4
2022-09-21T09:01:06.751Z,31.2
2022-09-21T09:02:01.851Z,31.2
2022-09-21T09:03:01.192Z,31.4
2022-09-21T09:04:04.339Z,30.5
2022-09-21T09:05:01.288Z,30.6
2022-09-21T09:06:01.093Z,30
2022-09-21T09:07:00.674Z,29.7
2022-09-21T09:08:00.273Z,28.5
2022-09-21T09:08:59.923Z,28.2
2022-09-21T09:09:59.507Z,28.4
2022-09-21T09:11:01.448Z,28.3
2022-09-21T09:12:01.082Z,29
2022-09-21T09:13:01.534Z,29.7
2022-09-21T09:14:01.244Z,29.7
2022-09-21T09:15:00.924Z,29
2022-09-21T09:16:03.322Z,28.7
2022-09-21T09:17:01.150Z,28.8
2022-09-21T09:18:01.149Z,28.4
2022-09-21T09:19:01.877Z,28.5
2022-09-21T09:20:00.852Z,28.8
2022-09-21T09:21:05.183Z,29.6
2022-09-21T09:22:01.499Z,29.4
2022-09-21T09:23:04.262Z,27.5
2022-09-21T09:24:01.808Z,27.3
2022-09-21T09:25:02.566Z,27.9
2022-09-21T09:26:09.929Z,27.7
2022-09-21T09:27:01.517Z,26.7
2022-09-21T09:28:00.610Z,24.5
2022-09-21T09:29:00.775Z,24.4
2022-09-21T09:30:03.322Z,24.6
2022-09-21T09:31:11.240Z,23.8
2022-09-21T09:32:02.435Z,22.6
2022-09-21T09:33:01.562Z,22.8
2022-09-21T09:34:01.140Z,23
2022-09-21T09:35:01.073Z,22.6
2022-09-21T09:36:15.835Z,22.1
2022-09-21T09:37:01.493Z,22.2
2022-09-21T09:38:01.132Z,22.6
2022-09-21T09:39:00.473Z,23.6
2022-09-21T09:40:00.168Z,23.3
2022-09-21T09:40:59.968Z,23.4
2022-09-21T09:41:59.571Z,23.6
2022-09-21T09:43:04.511Z,23.5
2022-09-21T09:44:01.141Z,22.3
2022-09-21T09:45:01.141Z,21.8
2022-09-21T09:46:01.162Z,21.9
2022-09-21T09:47:01.189Z,21.7
2022-09-21T09:48:01.125Z,20.7
2022-09-21T09:49:01.060Z,19.6
2022-09-21T09:50:01.264Z,19.8
2022-09-21T09:51:01.851Z,19
2022-09-21T09:52:01.287Z,19.2
2022-09-21T09:53:00.571Z,19.3
2022-09-21T09:54:00.578Z,19.1
2022-09-21T09:55:00.301Z,18.5
2022-09-21T09:55:59.994Z,18.7
2022-09-21T09:56:59.658Z,18.5
2022-09-21T09:58:01.318Z,17.8
2022-09-21T09:59:01.186Z,17.9
2022-09-21T10:00:00.930Z,18
2022-09-21T10:01:01.151Z,17.1
2022-09-21T10:02:01.275Z,17.1
2022-09-21T10:03:02.583Z,17
2022-09-21T10:04:04.946Z,16.7
2022-09-21T10:05:01.134Z,15.2
2022-09-21T10:06:01.060Z,11.5
2022-09-21T10:07:01.195Z,11.6
2022-09-21T10:08:01.078Z,11.7
2022-09-21T10:09:01.084Z,11.8
2022-09-21T10:10:01.088Z,11.7
2022-09-21T10:11:01.132Z,11.3
2022-09-21T10:12:01.536Z,11.4
2022-09-21T10:13:01.108Z,11.7
2022-09-21T10:14:01.335Z,10.8
2022-09-21T10:15:01.122Z,11.5
2022-09-21T10:16:01.195Z,11.5
2022-09-21T10:17:01.076Z,11.9
2022-09-21T10:18:01.161Z,12.4
2022-09-21T10:19:01.166Z,12.7
2022-09-21T10:20:00.842Z,12.6
2022-09-21T10:21:01.079Z,12.4
2022-09-21T10:22:01.182Z,12
2022-09-21T10:23:01.513Z,12.3
2022-09-21T10:24:01.080Z,12
2022-09-21T10:25:01.055Z,11.8
2022-09-21T10:26:01.111Z,11.8
2022-09-21T10:27:01.099Z,11.7
2022-09-21T10:28:01.107Z,12.2
2022-09-21T10:29:01.196Z,12
2022-09-21T10:30:01.433Z,12.5
2022-09-21T10:31:01.488Z,11.5
2022-09-21T10:32:01.321Z,10.1
2022-09-21T10:33:01.333Z,9.6
2022-09-21T10:34:01.980Z,9.2
2022-09-21T10:35:02.689Z,9
2022-09-21T10:36:01.059Z,9.3
2022-09-21T10:37:01.060Z,9.9
2022-09-21T10:38:01.069Z,9.6
2022-09-21T10:39:01.305Z,8.8
2022-09-21T10:40:00.861Z,7.4
2022-09-21T10:41:01.114Z,7.9
2022-09-21T10:42:01.091Z,8.8
2022-09-21T10:43:01.544Z,8.9
2022-09-21T10:44:01.162Z,8.2
2022-09-21T10:45:01.110Z,7.6
2022-09-21T10:46:01.166Z,8.5
2022-09-21T10:47:01.131Z,7.4
2022-09-21T10:48:01.143Z,6.7
2022-09-21T10:49:01.140Z,6.4
2022-09-21T10:50:01.268Z,6.6
2022-09-21T10:51:01.166Z,7.1
2022-09-21T10:52:01.449Z,7.3
2022-09-21T10:53:01.058Z,7.7
2022-09-21T10:54:01.772Z,7.8
2022-09-21T10:55:01.078Z,8.3
2022-09-21T10:56:17.589Z,8.6
2022-09-21T10:57:01.329Z,7.9
2022-09-21T10:58:01.105Z,7.3
2022-09-21T10:59:01.047Z,7
2022-09-21T11:00:01.129Z,6.3
2022-09-21T11:01:00.907Z,6
2022-09-21T11:02:02.022Z,6.1
2022-09-21T11:03:01.280Z,5.6
2022-09-21T11:04:01.131Z,5.9
2022-09-21T11:05:01.170Z,5.4
2022-09-21T11:06:00.528Z,5.2
2022-09-21T11:07:05.551Z,5.4
2022-09-21T11:08:01.193Z,5.6
2022-09-21T11:09:01.183Z,5.5
2022-09-21T11:10:01.298Z,5.4
2022-09-21T11:11:01.227Z,5.4
2022-09-21T11:12:06.831Z,4.5
2022-09-21T11:13:01.113Z,4.4
2022-09-21T11:14:01.174Z,4
2022-09-21T11:15:01.104Z,4.1
2022-09-21T11:16:01.204Z,3.5
2022-09-21T11:17:09.436Z,3.6
2022-09-21T11:18:01.662Z,3.8
2022-09-21T11:19:01.218Z,4.5
2022-09-21T11:20:01.232Z,4.8
2022-09-21T11:21:00.869Z,3.8
2022-09-21T11:22:10.896Z,3.3
2022-09-21T11:23:02.125Z,3.7
2022-09-21T11:24:01.061Z,3.5
2022-09-21T11:25:01.104Z,3.7
2022-09-21T11:26:01.085Z,3.2
2022-09-21T11:27:14.200Z,2
2022-09-21T11:28:01.091Z,1.6
2022-09-21T11:29:01.090Z,1.7
2022-09-21T11:30:01.100Z,2.3
2022-09-21T11:31:01.157Z,2.4
2022-09-21T11:32:16.365Z,2.7
2022-09-21T11:33:02.023Z,3
2022-09-21T11:34:01.119Z,3.3
2022-09-21T11:35:00.728Z,3.2
2022-09-21T11:36:00.421Z,3.6
2022-09-21T11:37:00.043Z,3.8
2022-09-21T11:37:59.652Z,3.2
2022-09-21T11:39:01.974Z,3.2
2022-09-21T11:40:01.458Z,3.8
2022-09-21T11:41:01.291Z,4
2022-09-21T11:42:01.167Z,4.2
2022-09-21T11:43:01.406Z,3.9
2022-09-21T11:44:02.986Z,3.9
2022-09-21T11:45:01.121Z,3.9
2022-09-21T11:46:01.163Z,3.8
2022-09-21T11:47:01.172Z,3.9
2022-09-21T11:48:01.118Z,3.6
2022-09-21T11:49:01.120Z,4
2022-09-21T11:50:19.496Z,4.2
2022-09-21T11:51:00.873Z,3
2022-09-21T11:52:00.523Z,2.6
2022-09-21T11:53:00.321Z,3.3
2022-09-21T11:54:00.023Z,3
2022-09-21T11:54:59.722Z,3.4
2022-09-21T11:56:02.089Z,3.3
2022-09-21T11:57:02.084Z,3.4
2022-09-21T11:58:01.087Z,3.6
2022-09-21T11:59:01.091Z,3.7
2022-09-21T12:00:01.101Z,3.3
2022-09-21T12:01:00.908Z,3.3
2022-09-21T12:02:01.145Z,2.5
2022-09-21T12:03:00.695Z,2
2022-09-21T12:04:00.417Z,2.6
2022-09-21T12:05:00.199Z,2.7
2022-09-21T12:05:59.927Z,3.2
2022-09-21T12:06:59.586Z,3.7
2022-09-21T12:08:01.222Z,3.4
2022-09-21T12:09:01.048Z,2.7
2022-09-21T12:10:01.151Z,2
2022-09-21T12:11:01.081Z,1
2022-09-21T12:12:01.070Z,1
2022-09-21T12:13:01.148Z,1
2022-09-21T12:14:01.476Z,1
2022-09-21T12:15:01.109Z,1
2022-09-21T12:16:01.098Z,1
2022-09-21T12:17:01.228Z,1
2022-09-21T12:18:01.105Z,1
2022-09-21T12:19:01.114Z,1
2022-09-21T12:20:01.135Z,1
2022-09-21T12:21:00.916Z,1
2022-09-21T12:22:01.140Z,1
2022-09-21T12:23:01.137Z,1
2022-09-21T12:24:01.279Z,1
2022-09-21T12:25:01.611Z,1
2022-09-21T12:26:02.091Z,1
2022-09-21T12:27:02.170Z,1
2022-09-21T12:28:01.044Z,1
2022-09-21T12:29:03.858Z,1
2022-09-21T12:30:01.940Z,1
2022-09-21T12:31:01.799Z,1
2022-09-21T12:32:01.133Z,1
2022-09-21T12:33:01.801Z,1
2022-09-21T12:34:03.858Z,1
2022-09-21T12:35:02.157Z,1
2022-09-21T12:36:01.523Z,1
2022-09-21T12:37:01.138Z,1
2022-09-21T12:38:01.132Z,1
2022-09-21T12:39:01.168Z,1
2022-09-21T12:40:01.216Z,1
2022-09-21T12:41:00.955Z,1
2022-09-21T12:42:01.065Z,1
2022-09-21T12:43:01.069Z,1
2022-09-21T12:44:01.082Z,1
2022-09-21T12:45:01.075Z,1
2022-09-21T12:46:01.178Z,1
2022-09-21T12:47:02.004Z,1
2022-09-21T12:48:02.046Z,1
2022-09-21T12:49:01.104Z,1
2022-09-21T12:50:01.847Z,2.4
2022-09-21T12:51:05.828Z,3.3
2022-09-21T12:52:01.517Z,1
2022-09-21T12:53:03.068Z,2.7
2022-09-21T12:54:01.151Z,2.3
2022-09-21T12:55:01.594Z,1.3
2022-09-21T12:56:01.051Z,1.4
2022-09-21T12:57:03.776Z,2.4
2022-09-21T12:58:18.062Z,2.3
2022-09-21T12:59:01.075Z,3.1
2022-09-21T13:00:01.385Z,3.5
2022-09-21T13:01:01.415Z,4.3
2022-09-21T13:02:01.449Z,5.7
2022-09-21T13:03:02.789Z,5.2
2022-09-21T13:04:02.170Z,6.3
2022-09-21T13:05:01.412Z,3.3
2022-09-21T13:06:02.052Z,3.2
2022-09-21T13:07:01.118Z,2.3
2022-09-21T13:08:04.244Z,2.8
2022-09-21T13:09:01.032Z,3
2022-09-21T13:10:01.266Z,4.4
2022-09-21T13:11:05.176Z,4.9
2022-09-21T13:12:01.433Z,4.5
2022-09-21T13:13:07.581Z,3.5
2022-09-21T13:14:01.808Z,3.4
2022-09-21T13:15:01.277Z,5.2
2022-09-21T13:16:00.972Z,5.1
2022-09-21T13:17:00.670Z,4.5
2022-09-21T13:18:10.072Z,5.1
2022-09-21T13:19:01.387Z,3.6
2022-09-21T13:20:00.788Z,3.2
2022-09-21T13:21:00.505Z,3.4
2022-09-21T13:22:00.173Z,2.8
2022-09-21T13:23:12.342Z,2.3
2022-09-21T13:24:01.136Z,2.2
2022-09-21T13:25:01.172Z,1.4
2022-09-21T13:26:01.144Z,1.5
2022-09-21T13:27:01.046Z,1
2022-09-21T13:28:14.830Z,1
2022-09-21T13:29:01.057Z,1
2022-09-21T13:30:01.074Z,1
2022-09-21T13:31:02.442Z,1
2022-09-21T13:32:01.475Z,1
2022-09-21T13:33:01.199Z,1
2022-09-21T13:34:01.101Z,1
2022-09-21T13:35:01.115Z,1
2022-09-21T13:36:01.115Z,1
2022-09-21T13:37:01.154Z,1